Flight Track Log - Related Links

Times and Time Zones

All times are in EST time to prevent confusion due to time zone crossing. See the UAL1116 flight status page for this flight to view local times or setup timezone preferences in your user account.

Time Position Orientation Groundspeed Altitude Reporting Facility
EST Latitude Longitude Course Direction KTS MPH feet Rate Location/Type
Fri 06:39:00 PM 42.3500 -71.0167 124° Southeast 144 166 900  Level KA90
Fri 06:40:12 PM 42.3167 -70.9500 124° Southeast 266 306 4,000 2,982 Climbing KA90
Fri 06:41:47 PM 42.3336 -70.7983 81° East 304 350 9,200 3,385 Climbing Boston Center
Fri 06:42:48 PM 42.2706 -70.7292 141° Southeast 313 360 12,800 3,273 Climbing Boston Center
Fri 06:43:48 PM 42.2164 -70.7931 221° Southwest 282 325 15,800 1,587 Climbing Boston Center
Fri 06:44:49 PM 42.1958 -70.9225 258° West 322 371 16,000 99 Climbing Boston Center
Fri 06:45:49 PM 42.1792 -71.0475 260° West 317 365 16,000  Level Boston Center
Fri 06:46:52 PM 42.1628 -71.1633 259° West 317 365 16,000  Level Boston Center
Fri 06:47:54 PM 42.1472 -71.2817 260° West 321 369 16,000  Level Boston Center
Fri 06:48:54 PM 42.1294 -71.4058 259° West 316 364 16,000  Level Boston Center
Fri 06:49:54 PM 42.1125 -71.5217 259° West 316 364 16,000  Level Boston Center
Fri 06:50:58 PM 42.0972 -71.6353 260° West 311 358 16,000  Level Boston Center
Fri 06:51:59 PM 42.0811 -71.7489 259° West 310 357 16,000  Level Boston Center
Fri 06:53:00 PM 42.0617 -71.8742 258° West 318 366 16,000  Level Boston Center
Fri 06:54:01 PM 42.0439 -71.9950 259° West 317 365 16,000  Level Boston Center
Fri 06:55:01 PM 42.0275 -72.1100 259° West 315 362 16,000  Level Boston Center
Fri 06:56:03 PM 42.0106 -72.2242 259° West 313 360 16,000  Level Boston Center
Fri 06:57:03 PM 41.9933 -72.3400 259° West 317 365 16,000  Level Boston Center
Fri 06:58:04 PM 41.9750 -72.4636 259° West 315 362 16,000  Level Boston Center
Fri 06:59:08 PM 41.9578 -72.5792 259° West 316 364 16,000  Level Boston Center
Fri 07:00:09 PM 41.9422 -72.6781 258° West 315 362 16,000  Level Boston Center
Fri 07:01:10 PM 41.9119 -72.8111 253° West 318 366 16,000  Level Boston Center
Fri 07:03:12 PM 41.8575 -73.0478 253° West 320 368 16,000  Level Boston Center
Fri 07:04:14 PM 41.8308 -73.1606 252° West 319 367 16,000  Level Boston Center
Fri 07:05:15 PM 41.8039 -73.2739 252° West 318 366 16,000  Level Boston Center
Fri 07:06:15 PM 41.7750 -73.3914 252° West 319 367 16,000  Level Boston Center
Fri 07:07:17 PM 41.7317 -73.4964 241° Southwest 325 374 16,000  Level Boston Center
Fri 07:08:17 PM 41.6850 -73.5992 239° Southwest 325 374 16,000 -397 Level Boston Center
Fri 07:09:18 PM 41.6342 -73.7086 238° Southwest 323 372 15,200 -871 Descending Boston Center
Fri 07:10:21 PM 41.5869 -73.8094 238° Southwest 322 371 14,200 -968 Descending Boston Center
Fri 07:11:22 PM 41.5422 -73.9064 238° Southwest 310 357 13,200 -1,289 Descending Boston Center
Fri 07:12:22 PM 41.4978 -74.0028 238° Southwest 305 351 11,600 -1,475 Descending Boston Center
Fri 07:13:24 PM 41.4547 -74.0944 238° Southwest 288 331 10,200 -1,561 Descending Boston Center
Fri 07:14:25 PM 41.4175 -74.1736 238° Southwest 252 290 8,400 -1,587 Descending Boston Center
Fri 07:15:25 PM 41.3694 -74.2442 228° Southwest 238 274 7,000 -800 Descending Boston Center
Fri 07:16:10 PM 41.3333 -74.2833 219° Southwest 236 272 7,000  Level New York TRACON
Fri 07:17:10 PM 41.2833 -74.3333 217° Southwest 239 275 7,000 -300 Level New York TRACON
Fri 07:18:10 PM 41.2333 -74.3833 217° Southwest 221 254 6,400 -900 Descending New York TRACON
Fri 07:19:10 PM 41.1833 -74.4333 217° Southwest 224 258 5,200 -700 Descending New York TRACON
Fri 07:20:10 PM 41.1333 -74.4833 217° Southwest 217 250 5,000 -100 Descending New York TRACON
Fri 07:21:10 PM 41.0667 -74.5167 201° Southwest 222 255 5,000  Level New York TRACON
Fri 07:22:04 PM 41.0167 -74.5333 194° South 222 255 5,000  Level New York TRACON
Fri 07:23:04 PM 40.9667 -74.5500 194° South 225 259 5,000  Level New York TRACON
Fri 07:24:04 PM 40.9000 -74.5500 180° South 227 261 5,000  Level New York TRACON
Fri 07:25:04 PM 40.8333 -74.5500 180° South 227 261 5,000  Level New York TRACON
Fri 07:26:04 PM 40.7667 -74.5500 180° South 221 254 5,000  Level New York TRACON
Fri 07:27:10 PM 40.7000 -74.5667 191° South 224 258 5,000  Level New York TRACON
Fri 07:28:04 PM 40.6500 -74.5667 180° South 228 262 5,000  Level New York TRACON
Fri 07:29:04 PM 40.5833 -74.5667 180° South 228 262 5,000  Level New York TRACON
Fri 07:30:04 PM 40.5167 -74.5833 191° South 214 246 5,000  Level New York TRACON
Fri 07:31:10 PM 40.4500 -74.5833 180° South 205 236 5,000 -95 Level New York TRACON
Fri 07:32:10 PM 40.4000 -74.5833 180° South 212 244 4,800 -600 Descending New York TRACON
Fri 07:33:10 PM 40.3500 -74.5333 143° Southeast 214 246 3,800 -900 Descending New York TRACON
Fri 07:34:10 PM 40.3333 -74.4667 108° East 239 275 3,000 -400 Descending New York TRACON
Fri 07:35:10 PM 40.3667 -74.3833 62° Northeast 236 272 3,000  Level New York TRACON
Fri 07:36:10 PM 40.4167 -74.3333 37° Northeast 220 253 3,000  Level New York TRACON
Fri 07:37:10 PM 40.4667 -74.3000 27° Northeast 222 255 3,000  Level New York TRACON
Fri 07:38:10 PM 40.5167 -74.2667 27° Northeast 217 250 3,000 -300 Level New York TRACON
Fri 07:39:10 PM 40.5833 -74.2333 21° North 207 238 2,400 -800 Descending New York TRACON
Fri 07:40:10 PM 40.6167 -74.2167 21° North 178 205 1,400 -900 Descending New York TRACON
Fri 07:41:10 PM 40.6667 -74.1833 27° Northeast 135 155 600 -800 Descending New York TRACON

Login

Don't have an account? Register now (free) for customized features, flight alerts, and more!